Time;durP1;ratioP1;P1;durP2;ratioP2;P2;SDS_P1;SDS_P2;PMS_P1;PMS_P2;Temp;Humidity;BMP_temperature;BMP_pressure;BME280_temperature;BME280_humidity;BME280_pressure;Samples;Min_cycle;Max_cycle;Signal;HPM_P1;HPM_P2
2023/02/06 00:01:18;;;;;;;12.30;7.83;;;;;;;;;;5049794;28;20453;-68
2023/02/06 00:03:46;;;;;;;17.30;8.43;;;;;;;;;;5050067;28;20485;-68
2023/02/06 00:06:13;;;;;;;11.37;7.07;;;;;;;;;;5049304;28;20456;-68
2023/02/06 00:08:41;;;;;;;11.37;7.13;;;;;;;;;;5049770;28;20478;-69
2023/02/06 00:11:09;;;;;;;12.77;7.07;;;;;;;;;;5050037;28;20446;-69
2023/02/06 00:13:36;;;;;;;12.67;7.37;;;;;;;;;;5049470;28;20461;-71
2023/02/06 00:16:03;;;;;;;19.53;9.43;;;;;;;;;;5049673;28;20840;-69
2023/02/06 00:18:30;;;;;;;12.00;7.37;;;;;;;;;;5049126;28;20461;-69
2023/02/06 00:20:59;;;;;;;15.73;10.20;;;;;;;;;;5049688;28;20957;-69
2023/02/06 00:23:26;;;;;;;16.70;8.80;;;;;;;;;;5049137;28;20481;-69
2023/02/06 00:25:53;;;;;;;15.53;10.37;;;;;;;;;;5049476;28;20481;-69
2023/02/06 00:28:20;;;;;;;16.33;9.57;;;;;;;;;;5049226;28;20453;-69
2023/02/06 00:30:47;;;;;;;14.57;9.07;;;;;;;;;;5050080;28;20442;-68
2023/02/06 00:33:15;;;;;;;16.40;9.03;;;;;;;;;;5049099;28;20746;-67
2023/02/06 00:35:42;;;;;;;15.33;7.40;;;;;;;;;;5049513;28;20815;-68
2023/02/06 00:38:11;;;;;;;18.30;10.67;;;;;;;;;;5050189;28;20462;-68
2023/02/06 00:40:38;;;;;;;14.13;8.80;;;;;;;;;;5050991;28;20447;-70
2023/02/06 00:43:06;;;;;;;10.90;6.97;;;;;;;;;;5053603;28;20482;-68
2023/02/06 00:45:33;;;;;;;15.13;8.17;;;;;;;;;;5052969;28;20466;-68
2023/02/06 00:48:00;;;;;;;16.10;7.97;;;;;;;;;;5053890;28;20450;-69
2023/02/06 00:50:27;;;;;;;15.43;7.73;;;;;;;;;;5053411;28;20780;-69
2023/02/06 00:52:55;;;;;;;17.53;9.83;;;;;;;;;;5053514;28;20450;-69
2023/02/06 00:55:23;;;;;;;16.80;8.13;;;;;;;;;;5053230;28;20457;-69
2023/02/06 00:57:50;;;;;;;30.07;9.03;;;;;;;;;;5053305;28;20532;-69
2023/02/06 01:00:17;;;;;;;17.17;7.83;;;;;;;;;;5053241;28;20453;-68
2023/02/06 01:02:45;;;;;;;14.87;7.47;;;;;;;;;;5053198;28;20477;-69
2023/02/06 01:05:12;;;;;;;16.77;8.13;;;;;;;;;;5053046;28;20454;-68
2023/02/06 01:07:39;;;;;;;16.70;10.13;;;;;;;;;;5052626;28;20461;-68
2023/02/06 01:10:07;;;;;;;14.70;9.03;;;;;;;;;;5053126;28;20438;-68
2023/02/06 01:12:36;;;;;;;17.10;8.83;;;;;;;;;;5052261;28;20446;-69
2023/02/06 01:15:03;;;;;;;17.53;10.50;;;;;;;;;;5053189;28;20450;-68
2023/02/06 01:17:32;;;;;;;15.07;9.57;;;;;;;;;;5051473;28;20540;-68
2023/02/06 01:19:59;;;;;;;15.90;7.70;;;;;;;;;;5052820;28;20450;-68
2023/02/06 01:22:26;;;;;;;14.57;8.70;;;;;;;;;;5051603;28;20450;-68
2023/02/06 01:24:53;;;;;;;17.50;9.13;;;;;;;;;;5052201;28;20447;-68
2023/02/06 01:27:20;;;;;;;15.37;9.50;;;;;;;;;;5051346;28;20459;-68
2023/02/06 01:29:48;;;;;;;17.47;8.70;;;;;;;;;;5052203;28;20454;-68
2023/02/06 01:32:15;;;;;;;15.97;8.20;;;;;;;;;;5038833;28;20460;-67
2023/02/06 01:34:43;;;;;;;20.83;9.93;;;;;;;;;;5052436;28;20457;-68
2023/02/06 01:37:10;;;;;;;18.17;10.50;;;;;;;;;;5052513;28;20807;-69
2023/02/06 01:39:37;;;;;;;19.17;7.67;;;;;;;;;;5052796;28;20462;-68
2023/02/06 01:42:04;;;;;;;21.67;10.60;;;;;;;;;;5052827;28;20465;-68
2023/02/06 01:44:32;;;;;;;18.53;10.50;;;;;;;;;;5053884;28;20564;-68
2023/02/06 01:47:00;;;;;;;21.30;10.23;;;;;;;;;;5052489;28;20450;-68
2023/02/06 01:49:30;;;;;;;14.73;9.17;;;;;;;;;;5051847;28;20450;-68
2023/02/06 01:52:00;;;;;;;19.00;8.60;;;;;;;;;;5052361;28;20541;-68
2023/02/06 01:54:27;;;;;;;17.57;10.53;;;;;;;;;;5051771;28;20469;-69
2023/02/06 01:56:56;;;;;;;16.87;12.07;;;;;;;;;;5052349;28;20796;-68
2023/02/06 01:59:23;;;;;;;14.30;9.20;;;;;;;;;;5051659;28;20451;-68
2023/02/06 02:01:50;;;;;;;21.33;12.07;;;;;;;;;;5052425;28;20577;-68
2023/02/06 02:04:20;;;;;;;18.73;10.20;;;;;;;;;;5051851;28;20489;-68
2023/02/06 02:06:48;;;;;;;20.60;10.30;;;;;;;;;;5052289;28;20769;-68
2023/02/06 02:09:16;;;;;;;17.23;9.67;;;;;;;;;;5051153;28;20477;-68
2023/02/06 02:11:43;;;;;;;17.67;10.27;;;;;;;;;;5052263;28;20443;-68
2023/02/06 02:14:11;;;;;;;21.53;11.73;;;;;;;;;;5051853;28;20453;-68
2023/02/06 02:16:41;;;;;;;14.57;10.57;;;;;;;;;;5051568;28;20451;-68
2023/02/06 02:19:24;;;;;;;14.93;10.30;;;;;;;;;;5051759;28;20969;-68
2023/02/06 02:22:11;;;;;;;18.33;11.03;;;;;;;;;;5051893;28;20800;-68
2023/02/06 02:24:48;;;;;;;16.93;8.83;;;;;;;;;;5041401;28;20465;-68
2023/02/06 02:27:31;;;;;;;18.90;11.50;;;;;;;;;;5050145;28;20934;-67
2023/02/06 02:30:13;;;;;;;17.30;10.07;;;;;;;;;;5051644;28;20442;-68
2023/02/06 02:32:49;;;;;;;19.23;9.87;;;;;;;;;;5051505;28;20464;-68
2023/02/06 02:35:24;;;;;;;20.77;10.87;;;;;;;;;;5050855;28;20442;-67
2023/02/06 02:38:06;;;;;;;13.77;12.07;;;;;;;;;;5051534;28;20541;-68
2023/02/06 02:40:39;;;;;;;19.97;11.03;;;;;;;;;;5048680;28;20449;-69
2023/02/06 02:43:10;;;;;;;17.77;10.67;;;;;;;;;;5050968;28;20464;-69
2023/02/06 02:45:39;;;;;;;17.83;10.33;;;;;;;;;;5050569;28;20454;-69
2023/02/06 02:48:08;;;;;;;17.93;9.70;;;;;;;;;;5050989;28;20471;-68
2023/02/06 02:50:37;;;;;;;22.07;10.27;;;;;;;;;;5050429;28;20806;-69
2023/02/06 02:53:04;;;;;;;19.53;8.90;;;;;;;;;;5050706;28;20462;-68
2023/02/06 02:55:32;;;;;;;13.83;9.60;;;;;;;;;;5049745;28;20442;-68
2023/02/06 02:58:01;;;;;;;17.37;10.70;;;;;;;;;;5050897;28;20449;-69
2023/02/06 03:00:29;;;;;;;17.43;8.47;;;;;;;;;;5049981;28;20450;-69
2023/02/06 03:02:58;;;;;;;16.37;8.83;;;;;;;;;;5049552;28;20461;-69
2023/02/06 03:05:26;;;;;;;26.70;11.00;;;;;;;;;;5049769;28;20447;-69
2023/02/06 03:07:58;;;;;;;17.60;10.37;;;;;;;;;;5050665;28;20488;-69
2023/02/06 03:10:28;;;;;;;15.93;10.03;;;;;;;;;;5049497;28;20945;-69
2023/02/06 03:12:59;;;;;;;13.23;9.30;;;;;;;;;;5050116;28;20571;-69
2023/02/06 03:15:30;;;;;;;20.20;10.33;;;;;;;;;;5049983;28;20473;-69
2023/02/06 03:18:01;;;;;;;13.73;7.70;;;;;;;;;;5050679;28;20450;-68
2023/02/06 03:20:31;;;;;;;19.33;10.80;;;;;;;;;;5050141;28;20464;-68
2023/02/06 03:23:01;;;;;;;20.13;9.90;;;;;;;;;;5049066;28;20442;-69
2023/02/06 03:25:29;;;;;;;18.60;9.27;;;;;;;;;;5048940;28;20469;-70
2023/02/06 03:27:58;;;;;;;17.97;9.87;;;;;;;;;;5050433;28;20442;-70
2023/02/06 03:30:27;;;;;;;18.00;9.87;;;;;;;;;;5049133;28;20452;-69
2023/02/06 03:32:57;;;;;;;19.93;10.30;;;;;;;;;;5050257;28;20449;-69
2023/02/06 03:35:26;;;;;;;26.23;13.97;;;;;;;;;;5049586;28;20465;-69
2023/02/06 03:37:54;;;;;;;19.73;10.97;;;;;;;;;;5050778;28;20458;-69
2023/02/06 03:40:22;;;;;;;21.77;9.53;;;;;;;;;;5049815;28;20446;-69
2023/02/06 03:42:51;;;;;;;22.93;11.33;;;;;;;;;;5050512;28;20813;-68
2023/02/06 03:45:21;;;;;;;17.40;9.97;;;;;;;;;;5049219;28;20588;-69
2023/02/06 03:47:49;;;;;;;14.87;9.10;;;;;;;;;;5050379;28;20450;-69
2023/02/06 03:50:17;;;;;;;14.90;9.10;;;;;;;;;;5049909;28;20451;-69
2023/02/06 03:52:46;;;;;;;14.73;8.37;;;;;;;;;;5050450;28;20527;-69
2023/02/06 03:55:15;;;;;;;14.63;8.37;;;;;;;;;;5048961;28;20947;-68
2023/02/06 03:57:45;;;;;;;26.27;10.70;;;;;;;;;;5050115;28;20466;-69
2023/02/06 04:00:13;;;;;;;16.67;10.53;;;;;;;;;;5050069;28;20438;-68
2023/02/06 04:02:40;;;;;;;14.50;9.30;;;;;;;;;;5050124;28;20447;-69
2023/02/06 04:05:07;;;;;;;13.93;8.33;;;;;;;;;;5050194;28;20488;-69
2023/02/06 04:07:35;;;;;;;23.53;8.83;;;;;;;;;;5048983;28;20456;-70
2023/02/06 04:10:02;;;;;;;18.03;10.63;;;;;;;;;;5049915;28;20450;-69
2023/02/06 04:12:30;;;;;;;18.57;8.90;;;;;;;;;;5049091;28;20449;-69
2023/02/06 04:14:58;;;;;;;18.27;8.43;;;;;;;;;;5051883;28;20474;-69
2023/02/06 04:17:25;;;;;;;18.43;9.10;;;;;;;;;;5052874;28;20452;-69
2023/02/06 04:19:52;;;;;;;25.63;14.60;;;;;;;;;;5054129;28;20465;-71
2023/02/06 04:22:19;;;;;;;20.23;10.50;;;;;;;;;;5053418;28;20445;-69
2023/02/06 04:24:47;;;;;;;14.60;8.60;;;;;;;;;;5053559;28;21006;-69
2023/02/06 04:27:14;;;;;;;22.00;10.93;;;;;;;;;;5053051;28;20477;-68
2023/02/06 04:29:41;;;;;;;23.33;11.67;;;;;;;;;;5053782;28;20451;-69
2023/02/06 04:32:10;;;;;;;20.63;8.40;;;;;;;;;;5054143;28;20557;-69
2023/02/06 04:34:38;;;;;;;26.77;11.27;;;;;;;;;;5054165;28;20450;-69
2023/02/06 04:37:06;;;;;;;18.50;8.67;;;;;;;;;;5053576;28;20474;-69
2023/02/06 04:39:33;;;;;;;17.03;11.07;;;;;;;;;;5053820;28;20449;-69
2023/02/06 04:42:01;;;;;;;19.63;8.40;;;;;;;;;;5054197;28;20457;-69
2023/02/06 04:44:28;;;;;;;13.40;9.50;;;;;;;;;;5053123;28;20470;-69
2023/02/06 04:46:55;;;;;;;16.77;10.97;;;;;;;;;;5053640;28;20446;-69
2023/02/06 04:49:24;;;;;;;21.57;10.43;;;;;;;;;;5053526;28;20461;-69
2023/02/06 04:51:51;;;;;;;17.70;9.90;;;;;;;;;;5044447;28;20446;-69
2023/02/06 04:54:18;;;;;;;15.40;8.80;;;;;;;;;;5052963;28;20453;-69
2023/02/06 04:56:46;;;;;;;18.37;10.43;;;;;;;;;;5053160;28;20450;-69
2023/02/06 04:59:13;;;;;;;13.50;7.73;;;;;;;;;;5052825;28;20457;-69
2023/02/06 05:01:40;;;;;;;22.77;9.47;;;;;;;;;;5054095;28;20451;-69
2023/02/06 05:04:07;;;;;;;14.80;10.17;;;;;;;;;;5054054;28;20485;-69
2023/02/06 05:06:36;;;;;;;17.30;9.60;;;;;;;;;;5052712;28;20438;-69
2023/02/06 05:09:05;;;;;;;22.90;11.03;;;;;;;;;;5053504;28;20474;-69
2023/02/06 05:11:32;;;;;;;20.43;11.17;;;;;;;;;;5052136;28;20446;-69
2023/02/06 05:13:59;;;;;;;12.10;8.10;;;;;;;;;;5053324;28;20457;-70
2023/02/06 05:16:27;;;;;;;20.60;10.97;;;;;;;;;;5051998;28;20454;-69
2023/02/06 05:18:54;;;;;;;14.90;8.40;;;;;;;;;;5053034;28;20476;-69
2023/02/06 05:21:22;;;;;;;21.13;12.00;;;;;;;;;;5052136;28;20450;-69
2023/02/06 05:23:50;;;;;;;12.97;8.83;;;;;;;;;;5052893;28;20458;-69
2023/02/06 05:26:17;;;;;;;19.50;11.43;;;;;;;;;;5051244;28;20473;-69
2023/02/06 05:28:44;;;;;;;12.97;8.77;;;;;;;;;;5053093;28;20451;-68
2023/02/06 05:31:17;;;;;;;15.17;8.47;;;;;;;;;;5052618;28;20451;-67
2023/02/06 05:33:44;;;;;;;18.10;9.03;;;;;;;;;;5051821;28;20449;-68
2023/02/06 05:36:11;;;;;;;14.73;8.93;;;;;;;;;;5051778;28;20442;-70
2023/02/06 05:38:38;;;;;;;12.90;8.73;;;;;;;;;;5053447;28;20462;-69
2023/02/06 05:41:07;;;;;;;15.60;9.23;;;;;;;;;;5053056;28;20454;-68
2023/02/06 05:43:34;;;;;;;21.90;8.77;;;;;;;;;;5052400;28;20454;-71
2023/02/06 05:46:01;;;;;;;11.97;8.60;;;;;;;;;;5052788;28;20489;-69
2023/02/06 05:48:29;;;;;;;14.83;7.23;;;;;;;;;;5052117;28;20438;-69
2023/02/06 05:50:57;;;;;;;16.00;10.47;;;;;;;;;;5052746;28;20450;-69
2023/02/06 05:53:24;;;;;;;21.43;8.43;;;;;;;;;;5051458;28;20450;-75
2023/02/06 05:55:51;;;;;;;17.27;9.83;;;;;;;;;;5052506;28;20537;-75
2023/02/06 05:58:20;;;;;;;13.77;9.60;;;;;;;;;;5042043;28;20445;-70
2023/02/06 06:00:47;;;;;;;15.63;8.47;;;;;;;;;;5052685;28;20446;-69
2023/02/06 06:03:14;;;;;;;18.03;11.00;;;;;;;;;;5052519;28;20449;-68
2023/02/06 06:05:41;;;;;;;13.13;7.67;;;;;;;;;;5052482;28;20482;-69
2023/02/06 06:08:08;;;;;;;17.20;9.53;;;;;;;;;;5052707;28;20473;-70
2023/02/06 06:10:36;;;;;;;21.90;11.57;;;;;;;;;;5052196;28;20446;-74
2023/02/06 06:13:03;;;;;;;13.40;8.93;;;;;;;;;;5052701;28;20453;-73
2023/02/06 06:15:31;;;;;;;16.87;9.67;;;;;;;;;;5051243;28;20791;-75
2023/02/06 06:17:58;;;;;;;13.90;10.80;;;;;;;;;;5052407;28;20460;-74
2023/02/06 06:20:25;;;;;;;15.23;10.03;;;;;;;;;;5051628;28;20800;-70
2023/02/06 06:22:52;;;;;;;11.30;8.27;;;;;;;;;;5052442;28;20446;-70
2023/02/06 06:25:20;;;;;;;16.80;10.10;;;;;;;;;;5050874;28;20564;-73
2023/02/06 06:27:47;;;;;;;20.40;11.73;;;;;;;;;;5051952;28;20447;-73
2023/02/06 06:30:14;;;;;;;17.17;8.50;;;;;;;;;;5052121;28;20450;-71
2023/02/06 06:32:42;;;;;;;19.13;11.40;;;;;;;;;;5052484;28;20536;-72
2023/02/06 06:35:10;;;;;;;20.23;9.13;;;;;;;;;;5051776;28;20466;-72
2023/02/06 06:37:37;;;;;;;21.13;11.30;;;;;;;;;;5050254;28;20447;-72
2023/02/06 06:40:04;;;;;;;14.30;8.40;;;;;;;;;;5051547;28;20445;-73
2023/02/06 06:42:31;;;;;;;15.03;9.30;;;;;;;;;;5051455;28;20450;-72
2023/02/06 06:44:58;;;;;;;19.17;11.20;;;;;;;;;;5052237;28;20865;-71
2023/02/06 06:47:25;;;;;;;12.33;9.00;;;;;;;;;;5051167;28;20455;-72
2023/02/06 06:49:54;;;;;;;10.40;7.23;;;;;;;;;;5051914;28;20454;-72
2023/02/06 06:52:21;;;;;;;10.63;8.53;;;;;;;;;;5051418;28;20460;-72
2023/02/06 06:54:48;;;;;;;9.50;6.57;;;;;;;;;;5052047;28;20446;-72
2023/02/06 06:57:15;;;;;;;12.60;7.30;;;;;;;;;;5050650;28;20453;-68
2023/02/06 06:59:42;;;;;;;12.90;8.63;;;;;;;;;;5051606;28;20453;-71
2023/02/06 07:02:10;;;;;;;12.50;7.70;;;;;;;;;;5051797;28;20927;-72
2023/02/06 07:04:37;;;;;;;12.43;7.00;;;;;;;;;;5050954;28;20482;-72
2023/02/06 07:07:06;;;;;;;17.90;8.47;;;;;;;;;;5050874;28;20446;-73
2023/02/06 07:09:33;;;;;;;12.10;8.77;;;;;;;;;;5050310;28;20465;-72
2023/02/06 07:12:00;;;;;;;14.60;7.50;;;;;;;;;;5051250;28;20454;-72
2023/02/06 07:14:27;;;;;;;9.73;7.47;;;;;;;;;;5037239;28;20454;-72
2023/02/06 07:16:55;;;;;;;13.87;8.70;;;;;;;;;;5050921;28;20450;-71
2023/02/06 07:19:22;;;;;;;10.37;6.30;;;;;;;;;;5050622;28;20503;-73
2023/02/06 07:21:49;;;;;;;8.97;6.30;;;;;;;;;;5051236;28;20453;-72
2023/02/06 07:24:18;;;;;;;8.93;6.40;;;;;;;;;;5050437;28;20453;-72
2023/02/06 07:26:45;;;;;;;9.50;7.10;;;;;;;;;;5050524;28;20493;-72
2023/02/06 07:29:12;;;;;;;10.10;8.13;;;;;;;;;;5050822;28;20448;-69
2023/02/06 07:31:39;;;;;;;8.87;6.93;;;;;;;;;;5050886;28;20450;-72
2023/02/06 07:34:06;;;;;;;8.40;6.50;;;;;;;;;;5051228;28;20454;-72
2023/02/06 07:36:33;;;;;;;7.93;6.70;;;;;;;;;;5049821;28;20533;-72
2023/02/06 07:39:02;;;;;;;12.27;7.20;;;;;;;;;;5051467;28;20454;-72
2023/02/06 07:41:30;;;;;;;12.40;8.47;;;;;;;;;;5050445;28;20468;-72
2023/02/06 07:43:58;;;;;;;12.97;7.90;;;;;;;;;;5051308;28;20446;-73
2023/02/06 07:46:25;;;;;;;11.60;6.80;;;;;;;;;;5049886;28;20997;-72
2023/02/06 07:48:52;;;;;;;13.07;5.90;;;;;;;;;;5051023;28;20446;-72
2023/02/06 07:51:19;;;;;;;13.87;8.20;;;;;;;;;;5050487;28;20454;-72
2023/02/06 07:53:46;;;;;;;10.90;6.80;;;;;;;;;;5051177;28;20461;-72
2023/02/06 07:56:14;;;;;;;11.97;8.40;;;;;;;;;;5049387;28;20454;-72
2023/02/06 07:58:43;;;;;;;10.70;5.90;;;;;;;;;;5051067;28;20454;-71
2023/02/06 08:01:10;;;;;;;9.10;6.10;;;;;;;;;;5051148;28;20445;-72
2023/02/06 08:03:37;;;;;;;12.70;6.63;;;;;;;;;;5050983;28;20445;-72
2023/02/06 08:06:08;;;;;;;9.17;6.70;;;;;;;;;;5050443;28;20486;-72
2023/02/06 08:08:35;;;;;;;27.10;6.20;;;;;;;;;;5049902;28;20485;-73
2023/02/06 08:11:05;;;;;;;8.07;5.63;;;;;;;;;;5050354;28;20481;-72
2023/02/06 08:13:32;;;;;;;7.03;5.10;;;;;;;;;;5049887;28;20531;-72
2023/02/06 08:16:03;;;;;;;8.80;6.77;;;;;;;;;;5049865;28;20967;-72
2023/02/06 08:18:30;;;;;;;9.30;7.00;;;;;;;;;;5049785;28;20496;-72
2023/02/06 08:21:01;;;;;;;10.73;6.63;;;;;;;;;;5050417;28;20454;-72
2023/02/06 08:23:28;;;;;;;7.40;5.57;;;;;;;;;;5049643;28;20446;-72
2023/02/06 08:26:01;;;;;;;12.10;7.33;;;;;;;;;;5050117;28;20495;-72
2023/02/06 08:28:28;;;;;;;12.83;6.60;;;;;;;;;;5049399;28;20447;-72
2023/02/06 08:30:55;;;;;;;11.30;6.40;;;;;;;;;;5050588;28;20447;-72
2023/02/06 08:33:24;;;;;;;9.90;5.13;;;;;;;;;;5049724;28;20457;-72
2023/02/06 08:35:51;;;;;;;6.93;5.70;;;;;;;;;;5050111;28;20450;-76
2023/02/06 08:38:18;;;;;;;9.90;6.57;;;;;;;;;;5049703;28;20454;-72
2023/02/06 08:40:45;;;;;;;5.60;3.90;;;;;;;;;;5050384;28;20450;-72
2023/02/06 08:43:12;;;;;;;10.03;6.50;;;;;;;;;;5049895;28;20469;-69
2023/02/06 08:45:39;;;;;;;6.83;6.13;;;;;;;;;;5049998;28;21072;-72
2023/02/06 08:48:06;;;;;;;10.10;7.00;;;;;;;;;;5050419;28;20451;-72
2023/02/06 08:50:35;;;;;;;8.77;6.27;;;;;;;;;;5049554;28;20457;-72
2023/02/06 08:53:02;;;;;;;8.87;7.97;;;;;;;;;;5050463;28;20461;-72
2023/02/06 08:55:29;;;;;;;9.13;5.17;;;;;;;;;;5049399;28;20454;-71
2023/02/06 08:57:56;;;;;;;7.73;5.27;;;;;;;;;;5050071;28;20546;-72
2023/02/06 09:00:23;;;;;;;11.50;5.00;;;;;;;;;;5049393;28;20447;-72
2023/02/06 09:02:52;;;;;;;5.60;3.80;;;;;;;;;;5053144;28;20941;-71
2023/02/06 09:05:19;;;;;;;8.47;4.47;;;;;;;;;;5052953;28;20493;-71
2023/02/06 09:07:48;;;;;;;5.10;4.60;;;;;;;;;;5053505;28;20465;-71
2023/02/06 09:10:16;;;;;;;7.40;5.27;;;;;;;;;;5053313;28;20521;-68
2023/02/06 09:12:43;;;;;;;6.70;4.03;;;;;;;;;;5053434;28;20450;-72
2023/02/06 09:15:10;;;;;;;5.33;3.70;;;;;;;;;;5053801;28;20468;-72
2023/02/06 09:17:37;;;;;;;11.50;5.47;;;;;;;;;;5053018;28;20457;-72
2023/02/06 09:20:05;;;;;;;5.43;3.70;;;;;;;;;;5053758;28;20442;-72
2023/02/06 09:22:34;;;;;;;7.73;4.47;;;;;;;;;;5039758;28;20684;-72
2023/02/06 09:25:03;;;;;;;7.37;5.33;;;;;;;;;;5053419;28;20450;-71
2023/02/06 09:27:30;;;;;;;7.00;4.77;;;;;;;;;;5052444;28;20457;-72
2023/02/06 09:29:57;;;;;;;6.00;4.07;;;;;;;;;;5053396;28;20447;-72
2023/02/06 09:32:24;;;;;;;7.07;4.90;;;;;;;;;;5052795;28;20453;-71
2023/02/06 09:34:51;;;;;;;9.80;4.50;;;;;;;;;;5053284;28;20808;-72
2023/02/06 09:37:18;;;;;;;5.70;3.50;;;;;;;;;;5052079;28;20476;-72
2023/02/06 09:39:45;;;;;;;10.40;4.80;;;;;;;;;;5053392;28;20546;-71
2023/02/06 09:42:17;;;;;;;9.53;4.90;;;;;;;;;;5052880;28;20797;-70
2023/02/06 09:44:47;;;;;;;6.50;4.70;;;;;;;;;;5053424;28;20450;-71
2023/02/06 09:47:23;;;;;;;5.00;4.00;;;;;;;;;;5052202;28;20521;-70
2023/02/06 09:49:51;;;;;;;5.17;3.53;;;;;;;;;;5053101;28;20453;-71
2023/02/06 09:52:26;;;;;;;6.90;3.90;;;;;;;;;;5052194;28;20458;-72
2023/02/06 09:54:57;;;;;;;4.13;3.73;;;;;;;;;;5052962;28;20470;-71
2023/02/06 09:57:34;;;;;;;7.53;4.17;;;;;;;;;;5052199;28;20434;-71
2023/02/06 10:00:03;;;;;;;5.30;3.53;;;;;;;;;;5053225;28;20441;-71
2023/02/06 10:02:38;;;;;;;6.93;4.30;;;;;;;;;;5052527;28;20814;-71
2023/02/06 10:05:09;;;;;;;4.80;3.13;;;;;;;;;;5052936;28;20571;-71
2023/02/06 10:07:47;;;;;;;4.50;2.80;;;;;;;;;;5052567;28;20496;-71
2023/02/06 10:10:18;;;;;;;4.87;2.97;;;;;;;;;;5052097;28;20545;-68
2023/02/06 10:12:48;;;;;;;6.40;3.90;;;;;;;;;;5051886;28;21003;-71
2023/02/06 10:15:16;;;;;;;6.27;3.60;;;;;;;;;;5051353;28;20461;-68
2023/02/06 10:17:47;;;;;;;4.00;3.30;;;;;;;;;;5052669;28;20447;-71
2023/02/06 10:20:16;;;;;;;9.20;3.27;;;;;;;;;;5052049;28;20458;-68
2023/02/06 10:22:46;;;;;;;5.30;3.13;;;;;;;;;;5052643;28;20453;-71
2023/02/06 10:25:20;;;;;;;6.63;3.17;;;;;;;;;;5051687;28;20556;-68
2023/02/06 10:27:52;;;;;;;4.97;3.40;;;;;;;;;;5052309;28;20453;-71
2023/02/06 10:30:20;;;;;;;7.50;4.20;;;;;;;;;;5051143;28;20446;-71
2023/02/06 10:32:52;;;;;;;5.70;2.97;;;;;;;;;;5051957;28;20458;-71
2023/02/06 10:35:40;;;;;;;4.93;2.73;;;;;;;;;;5051303;28;20435;-71
2023/02/06 10:38:19;;;;;;;5.20;3.53;;;;;;;;;;5044812;28;20470;-71
2023/02/06 10:40:50;;;;;;;4.90;2.10;;;;;;;;;;5052562;28;20807;-71
2023/02/06 10:43:21;;;;;;;3.70;2.57;;;;;;;;;;5051307;28;20449;-71
2023/02/06 10:45:52;;;;;;;4.10;2.23;;;;;;;;;;5051821;28;20478;-71
2023/02/06 10:48:27;;;;;;;3.50;2.70;;;;;;;;;;5051580;28;20452;-73
2023/02/06 10:50:57;;;;;;;2.93;1.97;;;;;;;;;;5052022;28;20815;-71
2023/02/06 10:53:26;;;;;;;3.70;2.57;;;;;;;;;;5051222;28;20957;-71
2023/02/06 10:55:55;;;;;;;2.80;1.93;;;;;;;;;;5051661;28;20446;-72
2023/02/06 10:58:25;;;;;;;3.87;1.77;;;;;;;;;;5051496;28;20446;-73
2023/02/06 11:00:53;;;;;;;4.63;2.60;;;;;;;;;;5052073;28;20446;-74
2023/02/06 11:03:21;;;;;;;2.83;2.63;;;;;;;;;;5051371;28;20472;-73
2023/02/06 11:05:48;;;;;;;3.57;2.50;;;;;;;;;;5051377;28;20450;-73
2023/02/06 11:08:19;;;;;;;3.43;3.03;;;;;;;;;;5050796;28;20501;-70
2023/02/06 11:10:46;;;;;;;3.10;2.30;;;;;;;;;;5051590;28;20457;-73
2023/02/06 11:13:15;;;;;;;4.30;2.47;;;;;;;;;;5050742;28;20950;-70
2023/02/06 11:15:56;;;;;;;1.63;1.50;;;;;;;;;;5051052;28;20454;-72
2023/02/06 11:18:25;;;;;;;3.60;1.90;;;;;;;;;;5050423;28;20450;-73
2023/02/06 11:20:52;;;;;;;5.40;2.13;;;;;;;;;;5051304;28;20457;-72
2023/02/06 11:23:21;;;;;;;3.97;2.87;;;;;;;;;;5050939;28;20442;-72
2023/02/06 11:25:51;;;;;;;2.70;1.83;;;;;;;;;;5050328;28;20462;-72
2023/02/06 11:28:19;;;;;;;10.20;2.33;;;;;;;;;;5050213;28;20453;-72
2023/02/06 11:30:56;;;;;;;2.30;2.10;;;;;;;;;;5051069;28;20936;-73
2023/02/06 11:33:26;;;;;;;2.77;2.03;;;;;;;;;;5050173;28;20450;-73
2023/02/06 11:35:55;;;;;;;5.47;2.57;;;;;;;;;;5051079;28;20529;-72
2023/02/06 11:38:23;;;;;;;5.80;2.37;;;;;;;;;;5050813;28;20453;-73
2023/02/06 11:40:59;;;;;;;1.80;1.60;;;;;;;;;;5051469;28;20450;-73
2023/02/06 11:43:27;;;;;;;1.90;1.53;;;;;;;;;;5050545;28;20434;-73
2023/02/06 11:46:07;;;;;;;3.03;2.80;;;;;;;;;;5051014;28;20457;-72
2023/02/06 11:48:36;;;;;;;4.83;2.40;;;;;;;;;;5050489;28;20450;-72
2023/02/06 11:51:03;;;;;;;4.30;2.27;;;;;;;;;;5051302;28;20462;-72
2023/02/06 11:53:31;;;;;;;3.50;2.07;;;;;;;;;;5050674;28;20475;-73
2023/02/06 11:55:59;;;;;;;3.33;2.77;;;;;;;;;;5050777;28;20456;-73
2023/02/06 11:58:29;;;;;;;3.73;2.23;;;;;;;;;;5050251;28;20962;-73
2023/02/06 12:00:58;;;;;;;3.10;2.70;;;;;;;;;;5051213;28;20447;-73
2023/02/06 12:03:32;;;;;;;2.30;1.80;;;;;;;;;;5050671;28;20450;-73
2023/02/06 12:06:01;;;;;;;5.87;2.60;;;;;;;;;;5050563;28;20445;-73
2023/02/06 12:08:34;;;;;;;3.87;2.43;;;;;;;;;;5049821;28;20989;-73
2023/02/06 12:11:03;;;;;;;3.10;2.10;;;;;;;;;;5050721;28;20760;-73
2023/02/06 12:13:33;;;;;;;2.40;2.20;;;;;;;;;;5049978;28;20454;-72
2023/02/06 12:16:02;;;;;;;4.13;2.40;;;;;;;;;;5050278;28;20446;-73
2023/02/06 12:18:34;;;;;;;5.83;3.30;;;;;;;;;;5049762;28;20942;-73
2023/02/06 12:21:08;;;;;;;3.97;2.87;;;;;;;;;;5050891;28;20461;-73
2023/02/06 12:23:38;;;;;;;5.80;2.13;;;;;;;;;;5050028;28;20461;-73
2023/02/06 12:26:08;;;;;;;3.53;3.00;;;;;;;;;;5050407;28;20457;-73
2023/02/06 12:28:38;;;;;;;2.83;2.30;;;;;;;;;;5049747;28;21310;-73
2023/02/06 12:31:10;;;;;;;3.07;2.60;;;;;;;;;;5050309;28;20450;-72
2023/02/06 12:33:42;;;;;;;2.67;2.43;;;;;;;;;;5050097;28;20442;-73
2023/02/06 12:36:15;;;;;;;6.67;3.13;;;;;;;;;;5052348;28;20443;-72
2023/02/06 12:38:43;;;;;;;3.27;2.00;;;;;;;;;;5054812;28;20512;-71
2023/02/06 12:41:24;;;;;;;2.23;1.73;;;;;;;;;;5054785;28;20457;-72
2023/02/06 12:43:54;;;;;;;3.43;2.30;;;;;;;;;;5054759;28;20445;-73
2023/02/06 12:46:23;;;;;;;4.73;2.60;;;;;;;;;;5053537;28;20450;-72
2023/02/06 12:48:54;;;;;;;6.90;3.60;;;;;;;;;;5054441;28;20812;-72
2023/02/06 12:51:24;;;;;;;5.47;3.40;;;;;;;;;;5053963;28;20442;-72
2023/02/06 12:53:53;;;;;;;5.20;3.63;;;;;;;;;;5054640;28;20842;-72
2023/02/06 12:56:26;;;;;;;5.60;3.17;;;;;;;;;;5052828;28;20450;-73
2023/02/06 12:58:58;;;;;;;4.77;3.50;;;;;;;;;;5054328;28;20446;-73
2023/02/06 13:01:32;;;;;;;4.33;2.80;;;;;;;;;;5053694;28;20442;-72
2023/02/06 13:04:03;;;;;;;3.60;2.83;;;;;;;;;;5054353;28;20492;-73
2023/02/06 13:06:33;;;;;;;5.17;2.53;;;;;;;;;;5053163;28;20474;-73
2023/02/06 13:09:01;;;;;;;7.40;2.70;;;;;;;;;;5053529;28;20465;-72
2023/02/06 13:11:31;;;;;;;5.77;3.33;;;;;;;;;;5053170;28;20450;-72
2023/02/06 13:14:06;;;;;;;4.63;3.53;;;;;;;;;;5053852;28;20453;-73
2023/02/06 13:16:49;;;;;;;4.10;2.67;;;;;;;;;;5052473;28;20449;-73
2023/02/06 13:19:31;;;;;;;3.27;2.60;;;;;;;;;;5052669;28;20446;-72
2023/02/06 13:22:18;;;;;;;5.30;3.23;;;;;;;;;;5053761;28;20446;-72
2023/02/06 13:24:46;;;;;;;3.73;2.37;;;;;;;;;;5053359;28;21021;-72
2023/02/06 13:27:14;;;;;;;3.90;1.83;;;;;;;;;;5052756;28;20478;-70
2023/02/06 13:29:43;;;;;;;2.77;1.77;;;;;;;;;;5053446;28;20954;-72
2023/02/06 13:32:29;;;;;;;4.17;2.43;;;;;;;;;;5053333;28;20446;-73
2023/02/06 13:35:03;;;;;;;3.13;2.13;;;;;;;;;;5052976;28;20442;-73
2023/02/06 13:37:33;;;;;;;2.47;1.60;;;;;;;;;;5052716;28;20823;-73
2023/02/06 13:40:13;;;;;;;2.90;2.43;;;;;;;;;;5053353;28;20458;-73
2023/02/06 13:42:42;;;;;;;2.77;2.10;;;;;;;;;;5053338;28;20453;-72
2023/02/06 13:45:16;;;;;;;3.60;2.10;;;;;;;;;;5053245;28;20477;-73
2023/02/06 13:48:00;;;;;;;3.13;1.90;;;;;;;;;;5052651;28;20477;-72
2023/02/06 13:50:36;;;;;;;3.30;2.70;;;;;;;;;;5053033;28;20791;-73
2023/02/06 13:53:13;;;;;;;4.23;2.60;;;;;;;;;;5053452;28;20442;-73
2023/02/06 13:55:47;;;;;;;2.33;1.67;;;;;;;;;;5053333;28;20453;-74
2023/02/06 13:58:35;;;;;;;1.43;1.20;;;;;;;;;;5052726;28;20449;-71
2023/02/06 14:01:04;;;;;;;3.00;2.20;;;;;;;;;;5053196;28;20446;-72
2023/02/06 14:03:33;;;;;;;2.73;1.50;;;;;;;;;;5052635;28;20675;-72
2023/02/06 14:06:06;;;;;;;2.87;1.60;;;;;;;;;;5052249;28;20461;-73
2023/02/06 14:08:40;;;;;;;3.63;2.30;;;;;;;;;;5052107;28;20498;-74
2023/02/06 14:11:31;;;;;;;3.60;2.60;;;;;;;;;;5052743;28;20941;-73
2023/02/06 14:14:13;;;;;;;2.50;2.30;;;;;;;;;;5037669;28;20802;-73
2023/02/06 14:16:48;;;;;;;2.80;2.00;;;;;;;;;;5052723;28;20434;-73
2023/02/06 14:19:20;;;;;;;3.10;1.70;;;;;;;;;;5052130;28;20476;-70
2023/02/06 14:21:55;;;;;;;2.77;2.10;;;;;;;;;;5052668;28;20457;-73
2023/02/06 14:24:35;;;;;;;2.03;1.83;;;;;;;;;;5051933;28;20438;-73
2023/02/06 14:27:09;;;;;;;2.67;1.43;;;;;;;;;;5052033;28;20484;-73
2023/02/06 14:29:42;;;;;;;3.20;1.27;;;;;;;;;;5052339;28;20476;-73
2023/02/06 14:32:22;;;;;;;1.90;1.70;;;;;;;;;;5052755;28;20453;-73
2023/02/06 14:34:54;;;;;;;3.87;2.00;;;;;;;;;;5052084;28;20442;-72
2023/02/06 14:37:39;;;;;;;2.87;2.67;;;;;;;;;;5051798;28;20458;-73
2023/02/06 14:40:12;;;;;;;2.10;1.60;;;;;;;;;;5052536;28;20447;-73
2023/02/06 14:42:41;;;;;;;2.27;1.40;;;;;;;;;;5052572;28;20477;-73
2023/02/06 14:45:09;;;;;;;3.17;1.73;;;;;;;;;;5052057;28;20473;-73
2023/02/06 14:47:41;;;;;;;4.90;2.10;;;;;;;;;;5051939;28;20486;-73